Data for 02/15/2018

Time Sea-Level Adjusted Pressure Absolute Pressure Temperature Relative Humidity Dew Point   
(mb) (inHg) (mb) (inHg) (C) (F) (%) (C) (F)
00:05 1013 29.91 843 24.89 -6.2 20.9 81 -8.9 16
00:10 1013 29.91 843 24.89 -6.2 20.8 81 -8.9 16
00:15 1013 29.91 843 24.89 -6.2 20.8 81 -9 15.8
00:20 1014 29.94 843 24.89 -6.3 20.7 80 -9.1 15.6
00:25 1014 29.94 843 24.89 -6.3 20.7 80 -9.1 15.6
00:30 1014 29.94 843 24.89 -6.2 20.8 80 -9.1 15.6
00:35 1014 29.94 843 24.89 -6.2 20.8 80 -9.1 15.6
00:40 1014 29.94 843 24.89 -6.2 20.8 80 -9.1 15.6
00:45 1014 29.94 843 24.89 -6.3 20.7 80 -9.2 15.5
00:50 1014 29.94 843 24.89 -6.2 20.8 80 -9.2 15.5
00:55 1014 29.94 843 24.89 -6.3 20.7 80 -9.2 15.4
01:00 1014 29.94 843 24.89 -6.3 20.7 80 -9.2 15.4
01:05 1014 29.94 843 24.89 -6.2 20.8 80 -9.2 15.4
01:10 1014 29.94 843 24.89 -6.3 20.7 80 -9.2 15.4
01:15 1014 29.94 843 24.89 -6.3 20.6 79 -9.4 15
01:20 1014 29.94 844 24.92 -6.4 20.4 79 -9.5 14.8
01:25 1014 29.94 844 24.92 -6.6 20.1 79 -9.7 14.6
01:30 1014 29.94 844 24.92 -6.7 19.9 79 -9.8 14.3
01:35 1014 29.94 844 24.92 -6.9 19.5 80 -9.9 14.2
01:40 1015 29.97 844 24.92 -7.1 19.2 80 -10 14
01:45 1014 29.94 844 24.92 -7.2 19 80 -10.1 13.9
01:50 1014 29.94 844 24.92 -7.3 19 80 -10.2 13.6
01:55 1014 29.94 844 24.92 -7.3 18.8 79 -10.4 13.2
02:00 1014 29.94 844 24.92 -7.4 18.6 79 -10.5 13.1
02:05 1015 29.97 844 24.92 -7.5 18.5 79 -10.5 13
02:10 1014 29.94 844 24.92 -7.6 18.3 79 -10.6 12.9
02:15 1015 29.97 844 24.92 -7.8 18.1 79 -10.8 12.6
02:20 1015 29.97 844 24.92 -7.9 17.9 79 -11 12.3
02:25 1015 29.97 844 24.92 -8.1 17.5 78 -11.2 11.8
02:30 1015 29.97 844 24.92 -8.3 17.1 79 -11.2 11.8
02:35 1015 29.97 844 24.92 -8.5 16.8 79 -11.4 11.5
02:40 1015 29.97 844 24.92 -8.6 16.5 79 -11.6 11.1
02:45 1015 29.97 844 24.92 -8.8 16.1 79 -11.8 10.7
02:50 1015 29.97 844 24.92 -9 15.9 79 -12 10.5
02:55 1015 29.97 844 24.92 -9.1 15.7 79 -12 10.4
03:00 1015 29.97 844 24.92 -9.1 15.7 79 -12.1 10.3
03:05 1015 29.97 844 24.92 -9 15.7 79 -12 10.4
03:10 1015 29.97 845 24.95 -9 15.8 79 -11.9 10.5
03:15 1015 29.97 845 24.95 -9 15.8 79 -11.9 10.5
03:20 1015 29.97 845 24.95 -9.1 15.6 79 -12.1 10.2
03:25 1015 29.97 845 24.95 -9.2 15.4 79 -12.2 10
03:30 1016 30 845 24.95 -9.5 14.9 80 -12.4 9.7
03:35 1016 30 845 24.95 -9.7 14.6 78 -12.7 9.1
03:40 1016 30 845 24.95 -9.8 14.4 79 -12.8 8.9
03:45 1016 30 845 24.95 -9.8 14.4 79 -12.8 9
03:50 1016 30 845 24.95 -9.8 14.4 78 -12.9 8.7
03:55 1016 30 845 24.95 -10 14 79 -13.1 8.5
04:00 1016 30 845 24.95 -10.1 13.9 79 -13 8.6
04:05 1016 30 846 24.98 -10.1 13.9 79 -13 8.6
04:10 1016 30 846 24.98 -10.1 13.9 79 -13 8.6
04:15 1017 30.03 846 24.98 -10.1 13.8 78 -13.2 8.2
04:20 1017 30.03 846 24.98 -10.2 13.6 78 -13.3 8
04:25 1017 30.03 846 24.98 -10.4 13.3 79 -13.3 8
04:30 1017 30.03 846 24.98 -10.5 13.2 79 -13.5 7.8
04:35 1017 30.03 846 24.98 -10.4 13.3 78 -13.5 7.7
04:40 1017 30.03 846 24.98 -10.5 13.1 78 -13.6 7.5
04:45 1017 30.03 846 24.98 -10.6 12.9 77 -13.8 7.1
04:50 1017 30.03 846 24.98 -10.6 13 78 -13.8 7.2
04:55 1017 30.03 847 25.01 -10.6 13 77 -13.8 7.1
05:00 1017 30.03 847 25.01 -10.6 12.9 77 -14 6.8
05:05 1017 30.03 847 25.01 -10.6 12.9 77 -13.9 7
05:10 1017 30.03 847 25.01 -10.6 13 77 -13.9 7
05:15 1018 30.06 847 25.01 -10.6 13 77 -13.9 7
05:20 1018 30.06 847 25.01 -10.7 12.8 79 -13.6 7.5
05:25 1018 30.06 847 25.01 -10.7 12.8 80 -13.4 7.9
05:30 1018 30.06 847 25.01 -10.8 12.6 82 -13.3 8
05:35 1018 30.06 847 25.01 -10.8 12.5 82 -13.3 8
05:40 1018 30.06 847 25.01 -10.8 12.5 84 -13.1 8.5
05:45 1018 30.06 847 25.01 -10.9 12.3 84 -13.1 8.4
05:50 1018 30.06 847 25.01 -11.1 12 85 -13.1 8.3
05:55 1018 30.06 847 25.01 -11.2 11.9 85 -13.2 8.3
06:00 1018 30.06 848 25.04 -11.2 11.9 85 -13.3 8.1
06:05 1018 30.06 848 25.04 -11.2 11.9 85 -13.3 8.1
06:10 1019 30.09 848 25.04 -11.1 12 84 -13.3 8.1
06:15 1019 30.09 848 25.04 -11.2 11.9 84 -13.4 8
06:20 1019 30.09 848 25.04 -11.2 11.9 84 -13.4 8
06:25 1019 30.09 848 25.04 -11.2 11.9 84 -13.4 7.9
06:30 1019 30.09 848 25.04 -11.1 12.1 84 -13.3 8
06:35 1019 30.09 848 25.04 -10.9 12.3 83 -13.3 8.1
06:40 1019 30.09 848 25.04 -10.8 12.6 83 -13.2 8.2
06:45 1019 30.09 848 25.04 -10.8 12.6 83 -13.2 8.2
06:50 1019 30.09 848 25.04 -10.7 12.7 83 -13.1 8.5
06:55 1019 30.09 848 25.04 -10.8 12.6 83 -13.2 8.2
07:00 1019 30.09 848 25.04 -10.8 12.6 82 -13.2 8.2
07:05 1019 30.09 849 25.07 -10.7 12.8 82 -13.2 8.2
07:10 1020 30.12 849 25.07 -10.6 12.9 82 -13.2 8.3
07:15 1020 30.12 849 25.07 -10.6 12.9 81 -13.2 8.2
07:20 1020 30.12 849 25.07 -10.6 13 81 -13.3 8.1
07:25 1020 30.12 849 25.07 -10.5 13.1 81 -13.2 8.2
07:30 1020 30.12 849 25.07 -10.4 13.3 80 -13.2 8.3
07:35 1020 30.12 849 25.07 -10.4 13.3 80 -13.2 8.3
07:40 1020 30.12 849 25.07 -10.4 13.3 79 -13.3 8.1
07:45 1020 30.12 849 25.07 -10.6 13 79 -13.6 7.6
07:50 1020 30.12 849 25.07 -10.7 12.7 79 -13.7 7.3
07:55 1020 30.12 849 25.07 -10.7 12.7 79 -13.7 7.3
08:00 1020 30.12 850 25.1 -10.4 13.2 77 -13.7 7.4
08:05 1020 30.12 850 25.1 -10.2 13.6 77 -13.6 7.6
08:10 1021 30.15 850 25.1 -10 14 75 -13.6 7.5
08:15 1021 30.15 850 25.1 -9.9 14.3 76 -13.4 7.9
08:20 1021 30.15 850 25.1 -9.4 15.1 72 -13.5 7.7
08:25 1021 30.15 850 25.1 -9.6 14.7 74 -13.5 7.7
08:30 1021 30.15 850 25.1 -9.7 14.5 74 -13.6 7.6
08:35 1021 30.15 850 25.1 -9.7 14.6 75 -13.4 7.9
08:40 1021 30.15 850 25.1 -9.9 14.2 74 -13.7 7.4
08:45 1021 30.15 850 25.1 -10.3 13.5 75 -13.9 7
08:50 1021 30.15 851 25.13 -10.4 13.3 76 -13.8 7.1
08:55 1022 30.18 851 25.13 -10.3 13.5 77 -13.5 7.6
09:00 1022 30.18 851 25.13 -10.3 13.5 76 -13.7 7.3
09:05 1022 30.18 851 25.13 -10.5 13.2 78 -13.6 7.4
09:10 1022 30.18 851 25.13 -10.4 13.3 78 -13.6 7.6
09:15 1022 30.18 851 25.13 -10.3 13.4 77 -13.6 7.5
09:20 1022 30.18 851 25.13 -10.4 13.3 76 -13.8 7.2
09:25 1022 30.18 851 25.13 -10.5 13.1 76 -13.9 6.9
09:30 1022 30.18 851 25.13 -10.3 13.5 74 -14 6.7
09:35 1022 30.18 851 25.13 -10.1 13.8 72 -14.3 6.2
09:40 1022 30.18 851 25.13 -10.6 13 75 -14.1 6.6
09:45 1022 30.18 851 25.13 -10.5 13.2 73 -14.3 6.2
09:50 1022 30.18 851 25.13 -10.4 13.2 75 -14 6.7
09:55 1022 30.18 852 25.16 -10.3 13.5 72 -14.4 6.2
10:00 1022 30.18 852 25.16 -10.7 12.8 73 -14.6 5.8
10:05 1022 30.18 852 25.16 -10.1 13.7 72 -14.2 6.4
10:10 1022 30.18 852 25.16 -9.5 14.9 69 -14.1 6.6
10:15 1023 30.21 852 25.16 -8.7 16.3 65 -14.2 6.5
10:20 1023 30.21 852 25.16 -8.3 17.1 65 -13.7 7.4
10:25 1023 30.21 852 25.16 -8.3 17.1 65 -13.7 7.4
10:30 1023 30.21 852 25.16 -8 17.6 63 -13.9 7
10:35 1023 30.21 852 25.16 -8.2 17.3 64 -13.9 7
10:40 1023 30.21 852 25.16 -8.1 17.5 62 -14.1 6.6
10:45 1023 30.21 852 25.16 -7.7 18.2 62 -13.8 7.2
10:50 1023 30.21 852 25.16 -7.5 18.6 59 -14.1 6.7
10:55 1023 30.21 852 25.16 -7.5 18.5 60 -14 6.8
11:00 1023 30.21 852 25.16 -7.7 18.1 62 -13.7 7.4
11:05 1023 30.21 852 25.16 -7.1 19.3 58 -14.1 6.6
11:10 1023 30.21 852 25.16 -6.8 19.8 58 -13.7 7.3
11:15 1023 30.21 852 25.16 -7.7 18.2 61 -14 6.8
11:20 1023 30.21 852 25.16 -7.9 17.8 61 -14.2 6.4
11:25 1023 30.21 852 25.16 -7.4 18.6 60 -13.9 6.9
11:30 1023 30.21 852 25.16 -6.6 20.1 57 -13.8 7.2
11:35 1023 30.21 852 25.16 -6.5 20.2 56 -13.9 7
11:40 1023 30.21 852 25.16 -6.3 20.6 55 -14 6.8
11:45 1023 30.21 852 25.16 -6.2 20.8 54 -14 6.9
11:50 1023 30.21 852 25.16 -6.2 20.9 55 -13.8 7.2
11:55 1023 30.21 852 25.16 -6.8 19.8 59 -13.6 7.6
12:00 1023 30.21 852 25.16 -6.5 20.4 59 -13.2 8.3
12:05 1023 30.21 852 25.16 -6.8 19.8 56 -14.2 6.4
12:10 1023 30.21 852 25.16 -5.9 21.4 55 -13.5 7.7
12:15 1023 30.21 852 25.16 -6 21.2 57 -13.2 8.3
12:20 1023 30.21 852 25.16 -6.6 20.1 57 -13.9 7
12:25 1023 30.21 852 25.16 -7 19.5 59 -13.7 7.3
12:30 1023 30.21 852 25.16 -6.2 20.8 55 -13.7 7.3
12:35 1023 30.21 852 25.16 -5.9 21.3 56 -13.3 8.1
12:40 1023 30.21 852 25.16 -5.7 21.7 54 -13.6 7.6
12:45 1023 30.21 852 25.16 -6 21.3 58 -13 8.6
12:50 1023 30.21 852 25.16 -6.1 21 56 -13.5 7.7
12:55 1023 30.21 852 25.16 -6.3 20.7 56 -13.6 7.5
13:00 1023 30.21 852 25.16 -5.9 21.3 55 -13.6 7.6
13:05 1023 30.21 852 25.16 -5.7 21.8 56 -13.1 8.4
13:10 1023 30.21 852 25.16 -5.6 21.9 54 -13.6 7.5
13:15 1023 30.21 852 25.16 -5.6 22 53 -13.7 7.3
13:20 1023 30.21 852 25.16 -5.6 21.9 54 -13.5 7.6
13:25 1023 30.21 852 25.16 -5.8 21.5 54 -13.7 7.3
13:30 1023 30.21 852 25.16 -6.3 20.7 57 -13.3 8
13:35 1023 30.21 852 25.16 -6.4 20.5 60 -13 8.6
13:40 1023 30.21 852 25.16 -7.6 18.3 64 -13.2 8.2
13:45 1023 30.21 852 25.16 -7.5 18.5 60 -13.9 7
13:50 1023 30.21 852 25.16 -7 19.3 59 -13.8 7.2
13:55 1023 30.21 852 25.16 -6.4 20.4 56 -13.8 7.1
14:00 1023 30.21 852 25.16 -5.7 21.7 55 -13.3 8.1
14:05 1023 30.21 852 25.16 -5.7 21.8 53 -13.8 7.2
14:10 1023 30.21 852 25.16 -5.3 22.5 54 -13.3 8.1
14:15 1023 30.21 852 25.16 -5.8 21.6 56 -13.3 8
14:20 1023 30.21 852 25.16 -5.7 21.7 56 -13.3 8.1
14:25 1023 30.21 852 25.16 -5.8 21.6 56 -13.3 8
14:30 1023 30.21 852 25.16 -5.7 21.7 54 -13.8 7.2
14:35 1023 30.21 852 25.16 -5.8 21.6 54 -13.6 7.5
14:40 1023 30.21 852 25.16 -5.8 21.5 55 -13.6 7.5
14:45 1023 30.21 852 25.16 -5.6 22 54 -13.4 7.9
14:50 1023 30.21 852 25.16 -5.5 22.1 53 -13.7 7.3
14:55 1023 30.21 852 25.16 -5.5 22.1 55 -13.2 8.2
15:00 1023 30.21 852 25.16 -5.7 21.8 57 -13 8.7
15:05 1023 30.21 852 25.16 -5.6 21.8 54 -13.5 7.7
15:10 1023 30.21 852 25.16 -5.5 22.2 55 -13.2 8.2
15:15 1023 30.21 852 25.16 -5 23 52 -13.3 8.1
15:20 1023 30.21 852 25.16 -5 23.1 52 -13.4 7.9
15:25 1023 30.21 852 25.16 -5.3 22.4 55 -13.1 8.4
15:30 1023 30.21 852 25.16 -5 22.9 53 -13.3 8
15:35 1023 30.21 852 25.16 -5.1 22.8 53 -13.4 7.9
15:40 1023 30.21 852 25.16 -5.1 22.7 55 -12.9 8.8
15:45 1023 30.21 852 25.16 -5.1 22.8 54 -13.2 8.3
15:50 1023 30.21 852 25.16 -5.2 22.6 53 -13.3 8.1
15:55 1023 30.21 852 25.16 -5.1 22.8 54 -13.1 8.4
16:00 1023 30.21 852 25.16 -5.3 22.5 54 -13.3 8.1
16:05 1023 30.21 852 25.16 -5.5 22.2 54 -13.3 8
16:10 1023 30.21 852 25.16 -6.1 21.1 57 -13.3 8
16:15 1023 30.21 852 25.16 -6.4 20.5 58 -13.3 8.1
16:20 1023 30.21 852 25.16 -7.2 19 61 -13.5 7.7
16:25 1023 30.21 852 25.16 -7.8 17.9 64 -13.4 7.9
16:30 1023 30.21 852 25.16 -8 17.7 62 -13.9 6.9
16:35 1023 30.21 853 25.19 -7.8 17.9 63 -13.7 7.3
16:40 1023 30.21 853 25.19 -7.9 17.8 64 -13.6 7.5
16:45 1023 30.21 853 25.19 -8.4 16.8 66 -13.7 7.3
16:50 1023 30.21 852 25.16 -8.6 16.6 67 -13.7 7.3
16:55 1023 30.21 852 25.16 -8.7 16.4 68 -13.6 7.6
17:00 1023 30.21 852 25.16 -9 15.8 69 -13.7 7.4
17:05 1023 30.21 852 25.16 -9.3 15.3 70 -13.8 7.2
17:10 1023 30.21 852 25.16 -9.5 14.8 71 -13.8 7.1
17:15 1023 30.21 852 25.16 -9.7 14.5 72 -13.9 7
17:20 1023 30.21 852 25.16 -9.8 14.3 72 -14 6.8
17:25 1023 30.21 852 25.16 -9.9 14.3 72 -14 6.8
17:30 1023 30.21 852 25.16 -10 14 72 -14.1 6.7
17:35 1023 30.21 852 25.16 -9.9 14.1 71 -14.2 6.4
17:40 1023 30.21 852 25.16 -9.9 14.2 72 -14.1 6.7
17:45 1023 30.21 852 25.16 -9.8 14.3 71 -14.2 6.5
17:50 1023 30.21 852 25.16 -9.7 14.5 72 -13.9 6.9
17:55 1023 30.21 852 25.16 -9.6 14.8 71 -13.9 7
18:00 1023 30.21 852 25.16 -9.5 14.9 71 -13.9 7
18:05 1023 30.21 852 25.16 -9.3 15.4 69 -14 6.9
18:10 1023 30.21 852 25.16 -9.1 15.7 74 -13 8.7
18:15 1023 30.21 852 25.16 -9.4 15.1 70 -13.9 7.1
18:20 1023 30.21 852 25.16 -9.8 14.4 73 -13.7 7.3
18:25 1023 30.21 852 25.16 -10.2 13.7 75 -13.8 7.1
18:30 1023 30.21 852 25.16 -10.3 13.4 77 -13.7 7.4
18:35 1023 30.21 852 25.16 -10.2 13.7 75 -13.8 7.1
18:40 1023 30.21 852 25.16 -10.3 13.5 76 -13.8 7.2
18:45 1023 30.21 852 25.16 -10.2 13.6 76 -13.6 7.5
18:50 1023 30.21 852 25.16 -10 14 77 -13.3 8.1
18:55 1023 30.21 852 25.16 -9.7 14.6 74 -13.4 7.9
19:00 1023 30.21 852 25.16 -9.4 15 73 -13.5 7.8
19:05 1023 30.21 852 25.16 -9.3 15.3 72 -13.5 7.7
19:10 1023 30.21 852 25.16 -9.5 15 72 -13.6 7.5
19:15 1023 30.21 852 25.16 -9.4 15.1 71 -13.7 7.4
19:20 1023 30.21 852 25.16 -9.5 14.9 72 -13.7 7.3
19:25 1023 30.21 852 25.16 -9.9 14.2 74 -13.8 7.2
19:30 1023 30.21 852 25.16 -10.5 13 77 -13.8 7.1
19:35 1023 30.21 852 25.16 -10.7 12.8 77 -14 6.9
19:40 1023 30.21 852 25.16 -10.6 12.9 74 -14.3 6.2
19:45 1023 30.21 852 25.16 -11 12.2 75 -14.6 5.8
19:50 1023 30.21 852 25.16 -11.1 12 77 -14.4 6
19:55 1023 30.21 852 25.16 -11 12.1 76 -14.5 5.9
20:00 1023 30.21 852 25.16 -10.8 12.5 76 -14.2 6.4
20:05 1023 30.21 852 25.16 -10.3 13.5 73 -14.2 6.4
20:10 1023 30.21 852 25.16 -9.6 14.7 69 -14.3 6.2
20:15 1023 30.21 852 25.16 -9.2 15.5 67 -14.2 6.4
20:20 1023 30.21 852 25.16 -9.4 15.1 66 -14.7 5.6
20:25 1023 30.21 852 25.16 -10.5 13 72 -14.7 5.6
20:30 1023 30.21 852 25.16 -11.1 12 76 -14.6 5.8
20:35 1023 30.21 852 25.16 -10.9 12.4 74 -14.7 5.5
20:40 1023 30.21 852 25.16 -10.3 13.4 71 -14.7 5.6
20:45 1023 30.21 852 25.16 -9.9 14.1 68 -14.7 5.5
20:50 1023 30.21 852 25.16 -10 14.1 69 -14.7 5.5
20:55 1023 30.21 852 25.16 -9.9 14.3 67 -14.9 5.2
21:00 1023 30.21 852 25.16 -9.9 14.3 67 -14.9 5.1
21:05 1023 30.21 852 25.16 -10.2 13.7 68 -15.1 4.9
21:10 1023 30.21 852 25.16 -10.4 13.4 66 -15.5 4
21:15 1023 30.21 852 25.16 -11 12.2 71 -15.2 4.6
21:20 1023 30.21 852 25.16 -11.1 12 69 -15.7 3.8
21:25 1023 30.21 852 25.16 -12.1 10.3 74 -15.8 3.6
21:30 1023 30.21 852 25.16 -12.2 10.1 74 -16 3.3
21:35 1023 30.21 852 25.16 -11.4 11.5 70 -15.9 3.5
21:40 1023 30.21 852 25.16 -10.4 13.3 67 -15.5 4.1
21:45 1023 30.21 852 25.16 -10.9 12.3 70 -15.4 4.2
21:50 1023 30.21 852 25.16 -11.6 11 73 -15.6 3.9
21:55 1023 30.21 852 25.16 -11.4 11.6 71 -15.6 3.9
22:00 1023 30.21 852 25.16 -11.7 11 75 -15.3 4.5
22:05 1023 30.21 852 25.16 -11.5 11.2 74 -15.3 4.5
22:10 1023 30.21 852 25.16 -11.1 12.1 71 -15.4 4.4
22:15 1023 30.21 852 25.16 -10.9 12.4 72 -15.1 4.8
22:20 1023 30.21 852 25.16 -10.9 12.4 71 -15.2 4.7
22:25 1023 30.21 852 25.16 -10.7 12.8 70 -15.1 4.8
22:30 1023 30.21 852 25.16 -10.8 12.6 70 -15.3 4.5
22:35 1023 30.21 852 25.16 -10.6 13 68 -15.3 4.4
22:40 1023 30.21 852 25.16 -10.1 13.9 66 -15.2 4.6
22:45 1023 30.21 852 25.16 -9.9 14.2 66 -15.2 4.7
22:50 1023 30.21 852 25.16 -10.6 12.9 67 -15.7 3.8
22:55 1023 30.21 852 25.16 -10.6 12.9 65 -16 3.2
23:00 1023 30.21 852 25.16 -10 14.1 63 -15.8 3.6
23:05 1023 30.21 852 25.16 -9.9 14.1 64 -15.6 3.9
23:10 1023 30.21 852 25.16 -10.5 13.2 66 -15.7 3.7
23:15 1023 30.21 852 25.16 -11 12.2 68 -15.9 3.5
23:20 1023 30.21 852 25.16 -11.5 11.3 71 -15.8 3.6
23:25 1023 30.21 852 25.16 -11.3 11.6 67 -16.2 2.8
23:30 1023 30.21 852 25.16 -10.9 12.4 67 -15.9 3.3
23:35 1023 30.21 852 25.16 -11.1 12.1 68 -15.9 3.3
23:40 1023 30.21 852 25.16 -11.6 11.2 72 -15.7 3.7
23:45 1023 30.21 852 25.16 -11.7 11 71 -16 3.2
23:50 1023 30.21 852 25.16 -11.8 10.7 74 -15.6 4
23:55 1023 30.21 852 25.16 -11.5 11.3 70 -15.9 3.3
24:00 1023 30.21 852 25.16 -11.7 10.9 71 -16 3.3